createdAt,value
2017-12-01T00:01:26.988Z,36.45
2017-12-01T00:03:55.052Z,35.63
2017-12-01T00:06:23.147Z,35.60
2017-12-01T00:08:51.204Z,33.05
2017-12-01T00:11:19.288Z,32.28
2017-12-01T00:13:47.357Z,33.95
2017-12-01T00:16:15.431Z,33.90
2017-12-01T00:18:43.515Z,31.08
2017-12-01T00:21:11.623Z,32.60
2017-12-01T00:23:39.694Z,31.67
2017-12-01T00:26:07.775Z,34.20
2017-12-01T00:28:35.972Z,30.67
2017-12-01T00:31:04.047Z,33.08
2017-12-01T00:33:32.137Z,32.78
2017-12-01T00:36:00.202Z,34.35
2017-12-01T00:38:28.275Z,34.17
2017-12-01T00:40:56.405Z,33.33
2017-12-01T00:43:24.439Z,35.92
2017-12-01T00:45:52.510Z,36.28
2017-12-01T00:48:20.587Z,35.45
2017-12-01T00:50:48.675Z,35.83
2017-12-01T00:53:17.524Z,34.78
2017-12-01T00:55:45.590Z,37.95
2017-12-01T00:58:13.666Z,34.20
2017-12-01T01:00:41.735Z,35.67
2017-12-01T01:03:09.811Z,32.60
2017-12-01T01:05:37.880Z,34.83
2017-12-01T01:08:05.979Z,33.38
2017-12-01T01:10:34.043Z,33.05
2017-12-01T01:13:02.123Z,31.75
2017-12-01T01:15:30.195Z,33.90
2017-12-01T01:17:58.267Z,34.15
2017-12-01T01:20:26.334Z,32.22
2017-12-01T01:22:54.411Z,34.10
2017-12-01T01:25:22.487Z,36.22
2017-12-01T01:27:50.559Z,36.42
2017-12-01T01:30:18.627Z,34.45
2017-12-01T01:32:46.704Z,34.65
2017-12-01T01:35:14.770Z,34.50
2017-12-01T01:37:42.850Z,35.50
2017-12-01T01:40:10.914Z,31.58
2017-12-01T01:42:38.993Z,33.25
2017-12-01T01:45:07.067Z,30.67
2017-12-01T01:47:35.139Z,29.55
2017-12-01T01:50:03.217Z,28.42
2017-12-01T01:52:32.091Z,29.63
2017-12-01T01:55:00.161Z,29.15
2017-12-01T01:57:28.232Z,32.10
2017-12-01T01:59:56.316Z,27.58
2017-12-01T02:02:24.379Z,30.55
2017-12-01T02:04:52.463Z,29.42
2017-12-01T02:07:20.530Z,30.90
2017-12-01T02:09:48.611Z,30.00
2017-12-01T02:12:17.447Z,28.40
2017-12-01T02:14:45.547Z,29.20
2017-12-01T02:17:13.616Z,26.65
2017-12-01T02:19:41.713Z,27.98
2017-12-01T02:22:09.783Z,26.70
2017-12-01T02:24:37.848Z,25.98
2017-12-01T02:27:05.931Z,25.52
2017-12-01T02:29:33.987Z,24.95
2017-12-01T02:32:02.069Z,26.55
2017-12-01T02:34:30.135Z,26.27
2017-12-01T02:36:58.220Z,25.30
2017-12-01T02:39:26.502Z,25.40
2017-12-01T02:41:55.359Z,26.50
2017-12-01T02:44:23.429Z,25.60
2017-12-01T02:46:51.512Z,26.00
2017-12-01T02:49:19.586Z,23.10
2017-12-01T02:51:47.678Z,22.62
2017-12-01T02:54:15.746Z,22.00
2017-12-01T02:56:43.815Z,22.30
2017-12-01T02:59:12.663Z,18.95
2017-12-01T03:01:41.506Z,19.17
2017-12-01T03:04:10.334Z,20.12
2017-12-01T03:06:38.417Z,20.42
2017-12-01T03:09:06.492Z,19.33
2017-12-01T03:11:34.571Z,19.42
2017-12-01T03:14:02.647Z,18.35
2017-12-01T03:16:30.719Z,16.58
2017-12-01T03:18:58.791Z,17.67
2017-12-01T03:21:26.858Z,18.12
2017-12-01T03:23:54.950Z,15.65
2017-12-01T03:26:23.025Z,16.62
2017-12-01T03:28:51.108Z,17.37
2017-12-01T03:31:19.181Z,16.00
2017-12-01T03:33:47.246Z,16.73
2017-12-01T03:36:15.316Z,16.30
2017-12-01T03:38:43.408Z,16.40
2017-12-01T03:41:12.239Z,15.30
2017-12-01T03:43:40.320Z,15.35
2017-12-01T03:46:08.392Z,16.75
2017-12-01T03:48:36.471Z,15.13
2017-12-01T03:51:04.551Z,17.05
2017-12-01T03:53:32.627Z,15.35
2017-12-01T03:56:00.695Z,16.00
2017-12-01T03:58:28.778Z,14.98
2017-12-01T04:00:56.880Z,14.15
2017-12-01T04:03:25.727Z,15.10
2017-12-01T04:05:53.803Z,16.12
2017-12-01T04:08:21.878Z,15.38
2017-12-01T04:10:49.948Z,16.27
2017-12-01T04:13:18.024Z,14.85
2017-12-01T04:15:46.119Z,15.20
2017-12-01T04:18:14.216Z,16.85
2017-12-01T04:20:42.287Z,14.98
2017-12-01T04:23:10.366Z,15.85
2017-12-01T04:25:38.436Z,16.00
2017-12-01T04:28:06.517Z,18.00
2017-12-01T04:30:34.597Z,18.95
2017-12-01T04:33:02.674Z,19.02
2017-12-01T04:35:30.758Z,17.87
2017-12-01T04:37:58.843Z,17.83
2017-12-01T04:40:26.943Z,19.17
2017-12-01T04:42:55.015Z,18.75
2017-12-01T04:45:23.091Z,19.15
2017-12-01T04:47:51.931Z,18.62
2017-12-01T04:50:20.779Z,18.75
2017-12-01T04:52:49.681Z,20.08
2017-12-01T04:55:17.720Z,20.52
2017-12-01T04:57:45.787Z,18.37
2017-12-01T05:00:13.872Z,19.90
2017-12-01T05:02:41.931Z,20.55
2017-12-01T05:05:10.008Z,21.42
2017-12-01T05:07:38.075Z,23.33
2017-12-01T05:10:06.167Z,34.45
2017-12-01T05:12:35.003Z,29.23
2017-12-01T05:15:03.079Z,24.58
2017-12-01T05:17:31.156Z,24.83
2017-12-01T05:19:59.228Z,32.28
2017-12-01T05:22:28.067Z,28.73
2017-12-01T05:24:56.913Z,29.15
2017-12-01T05:27:24.990Z,28.38
2017-12-01T05:29:53.066Z,25.25
2017-12-01T05:32:21.154Z,25.10
2017-12-01T05:34:49.259Z,27.30
2017-12-01T05:37:18.107Z,26.73
2017-12-01T05:39:46.175Z,24.12
2017-12-01T05:42:14.314Z,24.37
2017-12-01T05:44:42.332Z,25.12
2017-12-01T05:47:10.415Z,24.25
2017-12-01T05:49:38.544Z,23.95
2017-12-01T05:52:07.357Z,23.92
2017-12-01T05:54:35.427Z,24.98
2017-12-01T05:57:03.499Z,23.75
2017-12-01T05:59:31.572Z,24.10
2017-12-01T06:01:59.655Z,23.65
2017-12-01T06:04:27.732Z,22.95
2017-12-01T06:06:55.812Z,22.90
2017-12-01T06:09:23.875Z,21.92
2017-12-01T06:11:51.958Z,21.75
2017-12-01T06:14:20.028Z,22.87
2017-12-01T06:16:48.087Z,23.23
2017-12-01T06:19:16.164Z,26.00
2017-12-01T06:21:44.236Z,23.05
2017-12-01T06:24:12.348Z,24.00
2017-12-01T06:26:40.415Z,24.75
2017-12-01T06:29:09.252Z,25.48
2017-12-01T06:31:37.328Z,25.17
2017-12-01T06:34:05.412Z,24.00
2017-12-01T06:36:33.486Z,24.95
2017-12-01T06:39:01.548Z,24.25
2017-12-01T06:41:29.627Z,25.30
2017-12-01T06:43:57.709Z,23.73
2017-12-01T06:46:25.792Z,24.98
2017-12-01T06:48:53.855Z,26.02
2017-12-01T06:51:21.972Z,23.95
2017-12-01T06:53:50.050Z,22.98
2017-12-01T06:56:18.123Z,22.27
2017-12-01T06:58:46.199Z,23.83
2017-12-01T07:01:14.270Z,21.65
2017-12-01T07:03:42.347Z,22.45
2017-12-01T07:06:10.423Z,20.90
2017-12-01T07:08:38.507Z,20.33
2017-12-01T07:11:06.578Z,21.27
2017-12-01T07:13:34.655Z,20.20
2017-12-01T07:16:02.724Z,22.05
2017-12-01T07:18:30.795Z,22.23
2017-12-01T07:20:58.872Z,22.98
2017-12-01T07:23:26.942Z,23.62
2017-12-01T07:25:55.011Z,19.67
2017-12-01T07:28:23.093Z,22.83
2017-12-01T07:30:51.160Z,22.65
2017-12-01T07:33:19.315Z,22.55
2017-12-01T07:35:48.149Z,21.98
2017-12-01T07:38:16.222Z,21.58
2017-12-01T07:40:44.294Z,22.70
2017-12-01T07:43:12.375Z,20.98
2017-12-01T07:45:41.210Z,22.60
2017-12-01T07:48:09.304Z,22.60
2017-12-01T07:50:37.372Z,23.25
2017-12-01T07:53:05.444Z,23.70
2017-12-01T07:55:33.515Z,22.25
2017-12-01T07:58:01.587Z,22.60
2017-12-01T08:00:29.663Z,21.55
2017-12-01T08:02:57.740Z,22.55
2017-12-01T08:05:25.819Z,23.12
2017-12-01T08:07:53.902Z,23.10
2017-12-01T08:10:21.972Z,18.95
2017-12-01T08:12:50.041Z,16.85
2017-12-01T08:15:18.127Z,14.80
2017-12-01T08:17:46.195Z,18.25
2017-12-01T08:20:18.987Z,21.30
2017-12-01T08:22:52.645Z,20.15
2017-12-01T08:25:31.377Z,22.08
2017-12-01T08:27:59.447Z,20.12
2017-12-01T08:30:27.519Z,21.85
2017-12-01T08:32:55.606Z,20.42
2017-12-01T08:35:23.660Z,17.30
2017-12-01T08:37:51.742Z,16.77
2017-12-01T08:40:19.923Z,18.52
2017-12-01T08:42:47.983Z,17.10
2017-12-01T08:45:16.074Z,16.83
2017-12-01T08:47:44.136Z,17.20
2017-12-01T08:50:12.224Z,16.45
2017-12-01T08:52:40.295Z,16.37
2017-12-01T08:55:08.376Z,16.80
2017-12-01T08:57:36.447Z,14.40
2017-12-01T09:00:05.304Z,14.98
2017-12-01T09:02:33.387Z,13.70
2017-12-01T09:05:01.478Z,13.95
2017-12-01T09:07:29.539Z,15.57
2017-12-01T09:09:57.635Z,15.70
2017-12-01T09:12:26.462Z,18.00
2017-12-01T09:14:54.538Z,18.73
2017-12-01T09:17:22.617Z,18.27
2017-12-01T09:19:50.688Z,19.33
2017-12-01T09:22:19.569Z,17.08
2017-12-01T09:24:47.652Z,16.00
2017-12-01T09:27:15.789Z,18.17
2017-12-01T09:29:44.628Z,18.37
2017-12-01T09:32:12.714Z,16.12
2017-12-01T09:34:40.829Z,15.15
2017-12-01T09:37:08.924Z,17.50
2017-12-01T09:39:36.996Z,17.25
2017-12-01T09:42:05.063Z,15.15
2017-12-01T09:44:33.158Z,17.17
2017-12-01T09:47:01.233Z,15.10
2017-12-01T09:49:29.308Z,16.15
2017-12-01T09:51:58.315Z,16.45
2017-12-01T09:54:26.386Z,19.12
2017-12-01T09:56:55.508Z,16.15
2017-12-01T09:59:24.363Z,17.92
2017-12-01T10:01:52.482Z,16.77
2017-12-01T10:04:20.627Z,15.77
2017-12-01T10:06:48.691Z,15.18
2017-12-01T10:09:16.767Z,14.27
2017-12-01T10:11:46.239Z,13.18
2017-12-01T10:14:14.315Z,14.15
2017-12-01T10:16:42.396Z,14.60
2017-12-01T10:19:10.474Z,14.05
2017-12-01T10:21:38.550Z,15.77
2017-12-01T10:24:06.653Z,15.45
2017-12-01T10:26:35.403Z,15.77
2017-12-01T10:29:03.485Z,14.40
2017-12-01T10:31:31.552Z,14.48
2017-12-01T10:33:59.628Z,17.85
2017-12-01T10:36:27.714Z,16.02
2017-12-01T10:38:55.791Z,13.02
2017-12-01T10:41:23.963Z,12.00
2017-12-01T10:43:52.026Z,14.18
2017-12-01T10:46:20.111Z,13.90
2017-12-01T10:48:48.435Z,13.20
2017-12-01T10:51:16.540Z,12.95
2017-12-01T10:53:44.608Z,13.23
2017-12-01T10:56:12.800Z,13.93
2017-12-01T10:58:40.879Z,14.27
2017-12-01T11:01:08.947Z,14.45
2017-12-01T11:03:38.081Z,13.43
2017-12-01T11:06:06.918Z,14.40
2017-12-01T11:08:35.016Z,15.60
2017-12-01T11:11:03.135Z,16.50
2017-12-01T11:13:31.226Z,15.93
2017-12-01T11:15:59.296Z,15.70
2017-12-01T11:18:27.375Z,13.82
2017-12-01T11:20:55.485Z,15.15
2017-12-01T11:23:24.327Z,15.50
2017-12-01T11:25:53.156Z,17.87
2017-12-01T11:28:21.215Z,15.32
2017-12-01T11:30:49.391Z,16.55
2017-12-01T11:33:17.465Z,15.85
2017-12-01T11:35:45.531Z,16.23
2017-12-01T11:38:13.810Z,16.12
2017-12-01T11:40:41.900Z,16.95
2017-12-01T11:43:09.967Z,17.12
2017-12-01T11:45:38.091Z,19.50
2017-12-01T11:48:06.168Z,16.62
2017-12-01T11:50:35.012Z,15.80
2017-12-01T11:53:05.116Z,18.23
2017-12-01T11:55:33.196Z,16.33
2017-12-01T11:58:01.360Z,15.63
2017-12-01T12:00:36.904Z,16.00
2017-12-01T12:03:14.871Z,15.80
2017-12-01T12:05:42.955Z,18.23
2017-12-01T12:08:11.034Z,19.25
2017-12-01T12:10:39.120Z,17.37
2017-12-01T12:13:08.032Z,16.85
2017-12-01T12:15:36.883Z,17.90
2017-12-01T12:18:04.976Z,17.42
2017-12-01T12:20:33.427Z,16.90
2017-12-01T12:23:01.495Z,15.90
2017-12-01T12:25:31.007Z,16.37
2017-12-01T12:27:59.079Z,16.55
2017-12-01T12:30:27.156Z,16.12
2017-12-01T12:32:56.047Z,14.80
2017-12-01T12:35:24.159Z,15.65
2017-12-01T12:37:52.231Z,16.67
2017-12-01T12:40:20.317Z,16.12
2017-12-01T12:42:49.160Z,16.92
2017-12-01T12:45:17.227Z,15.60
2017-12-01T12:47:45.427Z,14.18
2017-12-01T12:50:13.500Z,13.93
2017-12-01T12:52:41.578Z,14.93
2017-12-01T12:55:09.662Z,13.40
2017-12-01T12:57:37.743Z,16.87
2017-12-01T13:00:06.585Z,15.40
2017-12-01T13:02:36.304Z,16.40
2017-12-01T13:05:04.377Z,21.00
2017-12-01T13:07:33.721Z,15.82
2017-12-01T13:10:02.556Z,15.50
2017-12-01T13:12:30.631Z,18.05
2017-12-01T13:14:58.704Z,15.45
2017-12-01T13:17:26.775Z,15.18
2017-12-01T13:19:55.618Z,15.40
2017-12-01T13:22:25.208Z,15.70
2017-12-01T13:24:54.071Z,16.80
2017-12-01T13:27:22.144Z,16.90
2017-12-01T13:29:50.229Z,17.00
2017-12-01T13:32:18.349Z,16.05
2017-12-01T13:34:47.199Z,15.00
2017-12-01T13:37:15.296Z,15.52
2017-12-01T13:39:43.351Z,15.07
2017-12-01T13:42:11.524Z,16.65
2017-12-01T13:44:39.596Z,14.35
2017-12-01T13:47:07.673Z,17.25
2017-12-01T13:49:35.821Z,18.65
2017-12-01T13:52:03.891Z,14.90
2017-12-01T13:54:32.036Z,15.40
2017-12-01T13:57:00.107Z,14.90
2017-12-01T13:59:28.181Z,13.90
2017-12-01T14:01:56.259Z,15.05
2017-12-01T14:04:24.334Z,15.60
2017-12-01T14:06:52.412Z,15.10
2017-12-01T14:09:20.503Z,13.38
2017-12-01T14:11:48.594Z,14.35
2017-12-01T14:14:16.668Z,13.88
2017-12-01T14:16:44.907Z,15.55
2017-12-01T14:19:12.964Z,14.95
2017-12-01T14:21:41.046Z,14.30
2017-12-01T14:24:09.116Z,14.38
2017-12-01T14:26:37.218Z,14.30
2017-12-01T14:29:05.295Z,14.25
2017-12-01T14:31:33.536Z,14.98
2017-12-01T14:34:01.609Z,15.73
2017-12-01T14:36:30.443Z,16.12
2017-12-01T14:38:58.588Z,15.48
2017-12-01T14:41:26.659Z,14.35
2017-12-01T14:43:54.747Z,17.10
2017-12-01T14:46:22.824Z,15.35
2017-12-01T14:48:50.903Z,15.77
2017-12-01T14:51:18.975Z,16.50
2017-12-01T14:53:47.067Z,14.85
2017-12-01T14:56:15.919Z,15.98
2017-12-01T14:58:43.987Z,15.27
2017-12-01T15:01:12.076Z,14.38
2017-12-01T15:03:40.159Z,13.80
2017-12-01T15:06:08.235Z,14.95
2017-12-01T15:08:36.307Z,15.10
2017-12-01T15:11:04.382Z,14.90
2017-12-01T15:13:32.443Z,15.35
2017-12-01T15:16:00.526Z,15.20
2017-12-01T15:18:29.359Z,14.15
2017-12-01T15:20:58.256Z,15.10
2017-12-01T15:23:27.080Z,13.82
2017-12-01T15:25:55.159Z,17.62
2017-12-01T15:28:23.231Z,16.30
2017-12-01T15:30:51.303Z,14.40
2017-12-01T15:33:19.374Z,14.30
2017-12-01T15:35:47.460Z,15.90
2017-12-01T15:38:16.292Z,15.30
2017-12-01T15:40:45.143Z,14.25
2017-12-01T15:43:13.991Z,16.40
2017-12-01T15:45:42.067Z,16.87
2017-12-01T15:48:10.131Z,16.40
2017-12-01T15:50:38.215Z,16.30
2017-12-01T15:53:06.296Z,18.30
2017-12-01T15:55:34.379Z,15.38
2017-12-01T15:58:02.456Z,15.63
2017-12-01T16:00:30.533Z,16.37
2017-12-01T16:02:59.374Z,15.68
2017-12-01T16:05:27.464Z,15.90
2017-12-01T16:07:55.530Z,16.33
2017-12-01T16:10:23.615Z,15.60
2017-12-01T16:12:51.686Z,18.67
2017-12-01T16:15:19.763Z,17.15
2017-12-01T16:17:47.848Z,17.20
2017-12-01T16:20:15.919Z,16.65
2017-12-01T16:22:43.992Z,16.98
2017-12-01T16:25:12.096Z,15.98
2017-12-01T16:27:40.166Z,17.52
2017-12-01T16:30:08.999Z,17.85
2017-12-01T16:32:42.382Z,16.98
2017-12-01T16:35:05.147Z,16.10
2017-12-01T16:37:33.222Z,17.25
2017-12-01T16:40:01.286Z,19.23
2017-12-01T16:42:29.359Z,18.40
2017-12-01T16:44:57.462Z,19.52
2017-12-01T16:47:25.540Z,20.60
2017-12-01T16:49:53.609Z,19.20
2017-12-01T16:52:21.683Z,20.58
2017-12-01T16:54:50.543Z,19.52
2017-12-01T16:57:18.628Z,22.85
2017-12-01T16:59:46.739Z,21.80
2017-12-01T17:02:15.598Z,23.15
2017-12-01T17:04:43.662Z,20.52
2017-12-01T17:07:11.748Z,24.80
2017-12-01T17:09:39.806Z,23.40
2017-12-01T17:12:07.891Z,22.00
2017-12-01T17:14:35.955Z,19.73
2017-12-01T17:17:04.035Z,20.12
2017-12-01T17:19:32.094Z,19.02
2017-12-01T17:22:00.168Z,18.48
2017-12-01T17:24:28.243Z,20.00
2017-12-01T17:26:56.344Z,22.45
2017-12-01T17:29:25.179Z,21.40
2017-12-01T17:31:53.257Z,26.83
2017-12-01T17:34:21.331Z,26.12
2017-12-01T17:36:49.407Z,22.20
2017-12-01T17:39:17.481Z,22.00
2017-12-01T17:41:45.576Z,20.33
2017-12-01T17:44:13.660Z,17.42
2017-12-01T17:46:42.517Z,18.35
2017-12-01T17:49:10.585Z,17.25
2017-12-01T17:51:38.663Z,16.67
2017-12-01T17:54:06.739Z,16.90
2017-12-01T17:56:34.819Z,16.35
2017-12-01T17:59:02.890Z,17.58
2017-12-01T18:01:30.961Z,16.35
2017-12-01T18:03:59.044Z,17.37
2017-12-01T18:06:27.119Z,18.95
2017-12-01T18:08:55.195Z,19.70
2017-12-01T18:11:24.250Z,20.15
2017-12-01T18:13:52.348Z,20.17
2017-12-01T18:16:20.446Z,19.85
2017-12-01T18:18:49.541Z,17.80
2017-12-01T18:21:18.424Z,19.50
2017-12-01T18:23:46.486Z,20.42
2017-12-01T18:26:14.559Z,19.20
2017-12-01T18:28:42.624Z,20.37
2017-12-01T18:31:10.699Z,19.42
2017-12-01T18:33:38.763Z,16.62
2017-12-01T18:36:06.848Z,20.00
2017-12-01T18:38:34.912Z,18.58
2017-12-01T18:41:02.990Z,17.37
2017-12-01T18:43:31.051Z,17.80
2017-12-01T18:45:59.160Z,17.62
2017-12-01T18:48:28.000Z,16.23
2017-12-01T18:50:56.072Z,16.37
2017-12-01T18:53:24.150Z,16.98
2017-12-01T18:55:52.219Z,17.20
2017-12-01T18:58:20.290Z,18.83
2017-12-01T19:00:48.380Z,35.13
2017-12-01T19:03:16.443Z,18.50
2017-12-01T19:05:44.533Z,18.35
2017-12-01T19:08:12.596Z,18.35
2017-12-01T19:10:40.666Z,18.67
2017-12-01T19:13:08.739Z,18.05
2017-12-01T19:15:37.176Z,20.30
2017-12-01T19:18:05.257Z,19.37
2017-12-01T19:20:34.180Z,19.05
2017-12-01T19:23:02.268Z,19.83
2017-12-01T19:25:30.549Z,18.48
2017-12-01T19:27:58.663Z,20.02
2017-12-01T19:30:26.711Z,41.47
2017-12-01T19:32:55.588Z,20.27
2017-12-01T19:35:24.419Z,17.92
2017-12-01T19:37:52.500Z,19.08
2017-12-01T19:40:20.574Z,20.20
2017-12-01T19:42:48.702Z,999.90
2017-12-01T19:45:17.551Z,990.03
2017-12-01T19:47:45.959Z,541.97
2017-12-01T19:50:14.033Z,108.45
2017-12-01T19:52:42.111Z,68.28
2017-12-01T19:55:10.943Z,44.42
2017-12-01T19:57:39.029Z,34.65
2017-12-01T20:00:07.101Z,27.80
2017-12-01T20:02:35.173Z,24.60
2017-12-01T20:05:03.254Z,24.27
2017-12-01T20:07:31.355Z,25.20
2017-12-01T20:09:59.432Z,42.78
2017-12-01T20:12:27.495Z,23.95
2017-12-01T20:14:55.573Z,24.83
2017-12-01T20:17:23.659Z,27.25
2017-12-01T20:19:52.503Z,24.10
2017-12-01T20:22:20.571Z,25.37
2017-12-01T20:24:48.658Z,29.35
2017-12-01T20:27:16.741Z,26.15
2017-12-01T20:29:44.808Z,27.25
2017-12-01T20:32:12.884Z,25.90
2017-12-01T20:34:40.964Z,34.10
2017-12-01T20:37:09.073Z,31.23
2017-12-01T20:39:37.156Z,27.37
2017-12-01T20:42:05.236Z,26.80
2017-12-01T20:44:33.326Z,31.85
2017-12-01T20:47:01.401Z,33.88
2017-12-01T20:49:29.479Z,29.98
2017-12-01T20:51:57.548Z,24.63
2017-12-01T20:54:25.628Z,25.50
2017-12-01T20:56:53.703Z,33.83
2017-12-01T20:59:21.776Z,23.48
2017-12-01T21:01:49.897Z,29.83
2017-12-01T21:04:17.983Z,28.80
2017-12-01T21:06:46.057Z,40.20
2017-12-01T21:09:14.124Z,33.80
2017-12-01T21:11:42.205Z,28.15
2017-12-01T21:14:10.275Z,25.37
2017-12-01T21:16:38.393Z,32.58
2017-12-01T21:19:06.455Z,35.90
2017-12-01T21:21:34.548Z,28.73
2017-12-01T21:24:03.380Z,28.92
2017-12-01T21:26:31.465Z,25.23
2017-12-01T21:28:59.546Z,26.75
2017-12-01T21:31:27.619Z,30.15
2017-12-01T21:33:55.693Z,29.25
2017-12-01T21:36:23.763Z,24.12
2017-12-01T21:38:51.853Z,26.08
2017-12-01T21:41:19.930Z,24.45
2017-12-01T21:43:47.996Z,23.27
2017-12-01T21:46:16.095Z,23.98
2017-12-01T21:48:44.940Z,25.80
2017-12-01T21:51:13.021Z,25.90
2017-12-01T21:53:41.114Z,24.67
2017-12-01T21:56:09.175Z,25.60
2017-12-01T21:58:37.380Z,26.83
2017-12-01T22:01:06.218Z,25.65
2017-12-01T22:03:34.300Z,24.05
2017-12-01T22:06:02.368Z,24.20
2017-12-01T22:08:30.439Z,25.80
2017-12-01T22:10:58.513Z,25.48
2017-12-01T22:13:26.583Z,23.60
2017-12-01T22:15:54.684Z,24.10
2017-12-01T22:18:22.758Z,23.40
2017-12-01T22:20:50.816Z,24.63
2017-12-01T22:23:18.965Z,24.48
2017-12-01T22:25:47.051Z,23.48
2017-12-01T22:28:15.116Z,26.48
2017-12-01T22:30:43.186Z,25.08
2017-12-01T22:33:11.263Z,27.05
2017-12-01T22:35:39.345Z,30.35
2017-12-01T22:38:07.408Z,27.45
2017-12-01T22:40:35.482Z,23.55
2017-12-01T22:43:03.551Z,26.33
2017-12-01T22:45:31.625Z,22.10
2017-12-01T22:47:59.691Z,21.80
2017-12-01T22:50:27.783Z,22.05
2017-12-01T22:52:55.851Z,21.27
2017-12-01T22:55:23.934Z,22.15
2017-12-01T22:57:52.008Z,24.00
2017-12-01T23:00:20.999Z,24.55
2017-12-01T23:02:49.131Z,23.90
2017-12-01T23:05:17.199Z,22.37
2017-12-01T23:07:45.272Z,22.80
2017-12-01T23:10:13.479Z,23.15
2017-12-01T23:12:41.547Z,23.40
2017-12-01T23:15:09.620Z,27.83
2017-12-01T23:17:37.700Z,25.35
2017-12-01T23:20:05.859Z,21.65
2017-12-01T23:22:33.931Z,23.92
2017-12-01T23:25:02.011Z,20.92
2017-12-01T23:27:30.078Z,22.95
2017-12-01T23:29:58.148Z,24.98
2017-12-01T23:32:26.227Z,22.13
2017-12-01T23:34:54.296Z,24.30
2017-12-01T23:37:22.382Z,21.02
2017-12-01T23:39:50.455Z,24.30
2017-12-01T23:42:18.536Z,23.90
2017-12-01T23:44:46.600Z,22.05
2017-12-01T23:47:14.690Z,24.85
2017-12-01T23:49:43.531Z,24.05
2017-12-01T23:52:11.613Z,22.37
2017-12-01T23:54:40.473Z,22.80
2017-12-01T23:57:08.556Z,21.73
2017-12-01T23:59:36.672Z,21.75
